createdAt,value
2018-07-01T00:00:46.865Z,412.05
2018-07-01T00:02:48.840Z,413.27
2018-07-01T00:04:50.800Z,422.93
2018-07-01T00:06:52.765Z,401.85
2018-07-01T00:08:54.748Z,404.15
2018-07-01T00:10:56.732Z,402.55
2018-07-01T00:12:58.691Z,409.30
2018-07-01T00:15:00.662Z,406.70
2018-07-01T00:17:02.652Z,393.02
2018-07-01T00:19:04.958Z,389.42
2018-07-01T00:21:06.948Z,383.02
2018-07-01T00:23:08.912Z,387.23
2018-07-01T00:25:10.890Z,375.20
2018-07-01T00:27:12.877Z,377.90
2018-07-01T00:29:14.854Z,376.60
2018-07-01T00:31:16.828Z,378.37
2018-07-01T00:33:18.836Z,373.62
2018-07-01T00:35:20.802Z,366.30
2018-07-01T00:37:22.780Z,372.82
2018-07-01T00:39:24.780Z,365.82
2018-07-01T00:41:26.757Z,361.52
2018-07-01T00:43:28.724Z,368.20
2018-07-01T00:45:30.773Z,363.20
2018-07-01T00:47:32.755Z,367.62
2018-07-01T00:49:34.722Z,363.92
2018-07-01T00:51:36.695Z,354.00
2018-07-01T00:53:38.688Z,350.15
2018-07-01T00:55:40.689Z,351.25
2018-07-01T00:57:42.645Z,349.55
2018-07-01T00:59:44.623Z,350.50
2018-07-01T01:01:46.589Z,352.38
2018-07-01T01:03:48.568Z,352.40
2018-07-01T01:05:50.807Z,355.87
2018-07-01T01:07:52.785Z,349.62
2018-07-01T01:09:54.767Z,346.07
2018-07-01T01:11:56.743Z,344.82
2018-07-01T01:13:58.753Z,333.32
2018-07-01T01:16:00.713Z,341.25
2018-07-01T01:18:02.693Z,342.75
2018-07-01T01:20:04.676Z,327.20
2018-07-01T01:22:06.665Z,329.07
2018-07-01T01:24:08.987Z,321.20
2018-07-01T01:26:10.949Z,322.52
2018-07-01T01:28:12.926Z,329.38
2018-07-01T01:30:14.917Z,315.68
2018-07-01T01:32:16.885Z,312.32
2018-07-01T01:34:18.861Z,315.87
2018-07-01T01:36:20.845Z,320.93
2018-07-01T01:38:22.813Z,316.52
2018-07-01T01:40:24.783Z,326.85
2018-07-01T01:42:26.773Z,309.60
2018-07-01T01:44:28.758Z,308.55
2018-07-01T01:46:30.744Z,305.77
2018-07-01T01:48:32.716Z,307.70
2018-07-01T01:50:34.704Z,304.13
2018-07-01T01:52:36.681Z,316.73
2018-07-01T01:54:38.651Z,300.80
2018-07-01T01:56:40.649Z,294.32
2018-07-01T01:58:42.622Z,298.25
2018-07-01T02:00:44.577Z,293.48
2018-07-01T02:02:46.556Z,290.60
2018-07-01T02:04:48.934Z,294.67
2018-07-01T02:06:50.787Z,298.30
2018-07-01T02:08:52.831Z,288.12
2018-07-01T02:10:54.770Z,293.75
2018-07-01T02:12:56.748Z,289.17
2018-07-01T02:14:58.710Z,297.05
2018-07-01T02:17:00.737Z,288.95
2018-07-01T02:19:02.684Z,280.67
2018-07-01T02:21:04.653Z,275.07
2018-07-01T02:23:06.713Z,285.48
2018-07-01T02:25:08.688Z,274.25
2018-07-01T02:27:10.660Z,285.55
2018-07-01T02:29:12.640Z,266.77
2018-07-01T02:31:14.603Z,265.85
2018-07-01T02:33:16.600Z,270.90
2018-07-01T02:35:18.630Z,283.57
2018-07-01T02:37:20.561Z,274.20
2018-07-01T02:39:22.543Z,275.80
2018-07-01T02:41:24.536Z,268.70
2018-07-01T02:43:26.543Z,260.25
2018-07-01T02:45:28.536Z,258.52
2018-07-01T02:47:30.500Z,255.20
2018-07-01T02:49:32.485Z,258.25
2018-07-01T02:51:34.450Z,263.65
2018-07-01T02:53:36.500Z,260.98
2018-07-01T02:55:38.444Z,257.60
2018-07-01T02:57:40.424Z,244.85
2018-07-01T02:59:42.408Z,251.25
2018-07-01T03:01:44.374Z,251.90
2018-07-01T03:03:46.355Z,259.02
2018-07-01T03:05:48.335Z,246.05
2018-07-01T03:07:50.298Z,242.95
2018-07-01T03:09:52.306Z,235.90
2018-07-01T03:11:54.276Z,243.12
2018-07-01T03:13:56.244Z,237.15
2018-07-01T03:15:58.226Z,240.55
2018-07-01T03:18:00.213Z,238.07
2018-07-01T03:20:02.209Z,232.85
2018-07-01T03:22:04.186Z,229.75
2018-07-01T03:24:06.232Z,231.02
2018-07-01T03:26:08.200Z,225.45
2018-07-01T03:28:10.162Z,226.90
2018-07-01T03:30:12.126Z,231.55
2018-07-01T03:32:14.099Z,226.07
2018-07-01T03:34:16.076Z,230.45
2018-07-01T03:36:18.072Z,231.15
2018-07-01T03:38:20.028Z,225.70
2018-07-01T03:40:22.005Z,226.15
2018-07-01T03:42:23.980Z,223.03
2018-07-01T03:44:25.958Z,220.50
2018-07-01T03:46:27.933Z,216.70
2018-07-01T03:48:29.895Z,214.45
2018-07-01T03:50:31.863Z,223.22
2018-07-01T03:52:33.835Z,215.85
2018-07-01T03:54:35.787Z,210.75
2018-07-01T03:56:37.779Z,215.95
2018-07-01T03:58:39.737Z,213.80
2018-07-01T04:00:41.714Z,213.37
2018-07-01T04:02:43.704Z,208.55
2018-07-01T04:04:45.680Z,210.60
2018-07-01T04:06:47.644Z,204.13
2018-07-01T04:08:49.633Z,206.68
2018-07-01T04:10:51.607Z,206.35
2018-07-01T04:12:53.599Z,206.68
2018-07-01T04:14:55.583Z,200.30
2018-07-01T04:16:57.547Z,199.53
2018-07-01T04:18:59.527Z,200.35
2018-07-01T04:21:01.497Z,194.02
2018-07-01T04:23:03.471Z,189.37
2018-07-01T04:25:05.443Z,191.95
2018-07-01T04:27:07.395Z,191.30
2018-07-01T04:29:09.365Z,183.78
2018-07-01T04:31:11.436Z,193.62
2018-07-01T04:33:13.335Z,187.68
2018-07-01T04:35:15.319Z,195.18
2018-07-01T04:37:17.301Z,181.12
2018-07-01T04:39:19.274Z,185.85
2018-07-01T04:41:21.264Z,181.45
2018-07-01T04:43:23.233Z,186.37
2018-07-01T04:45:25.207Z,180.15
2018-07-01T04:47:27.161Z,176.65
2018-07-01T04:49:29.159Z,180.75
2018-07-01T04:51:31.222Z,180.30
2018-07-01T04:53:33.184Z,176.37
2018-07-01T04:55:35.152Z,177.25
2018-07-01T04:57:37.126Z,172.05
2018-07-01T04:59:39.103Z,175.60
2018-07-01T05:01:41.073Z,175.40
2018-07-01T05:03:43.056Z,168.75
2018-07-01T05:05:45.049Z,167.25
2018-07-01T05:07:47.019Z,167.00
2018-07-01T05:09:49.012Z,164.85
2018-07-01T05:11:50.974Z,165.68
2018-07-01T05:13:52.956Z,167.22
2018-07-01T05:15:54.931Z,158.68
2018-07-01T05:17:56.899Z,162.00
2018-07-01T05:19:58.882Z,159.82
2018-07-01T05:22:00.859Z,168.32
2018-07-01T05:24:02.846Z,155.03
2018-07-01T05:26:04.805Z,160.40
2018-07-01T05:28:06.765Z,158.85
2018-07-01T05:30:09.127Z,162.82
2018-07-01T05:32:10.977Z,159.05
2018-07-01T05:34:12.959Z,151.35
2018-07-01T05:36:14.936Z,150.12
2018-07-01T05:38:16.917Z,153.23
2018-07-01T05:40:18.877Z,158.87
2018-07-01T05:42:20.849Z,149.27
2018-07-01T05:44:22.837Z,146.50
2018-07-01T05:46:24.823Z,151.57
2018-07-01T05:48:26.771Z,148.57
2018-07-01T05:50:28.745Z,150.12
2018-07-01T05:52:30.713Z,140.43
2018-07-01T05:54:32.703Z,146.32
2018-07-01T05:56:34.701Z,140.45
2018-07-01T05:58:36.673Z,145.87
2018-07-01T06:00:38.653Z,138.15
2018-07-01T06:02:40.631Z,135.85
2018-07-01T06:04:42.597Z,138.55
2018-07-01T06:06:44.574Z,138.88
2018-07-01T06:08:46.608Z,133.15
2018-07-01T06:10:48.517Z,136.28
2018-07-01T06:12:50.498Z,133.97
2018-07-01T06:14:52.506Z,133.52
2018-07-01T06:16:54.534Z,130.22
2018-07-01T06:18:56.473Z,131.15
2018-07-01T06:20:58.435Z,128.53
2018-07-01T06:23:00.433Z,124.65
2018-07-01T06:25:02.397Z,123.02
2018-07-01T06:27:04.365Z,124.92
2018-07-01T06:29:06.335Z,120.42
2018-07-01T06:31:08.314Z,122.20
2018-07-01T06:33:10.368Z,119.90
2018-07-01T06:35:12.335Z,121.67
2018-07-01T06:37:14.334Z,118.35
2018-07-01T06:39:16.300Z,116.75
2018-07-01T06:41:18.301Z,118.17
2018-07-01T06:43:20.255Z,119.08
2018-07-01T06:45:22.231Z,115.30
2018-07-01T06:47:24.253Z,112.70
2018-07-01T06:49:26.298Z,114.55
2018-07-01T06:51:28.233Z,112.17
2018-07-01T06:53:30.221Z,304.15
2018-07-01T06:55:32.167Z,111.47
2018-07-01T06:57:34.162Z,128.32
2018-07-01T06:59:36.139Z,56.85
2018-07-01T07:01:38.142Z,22.10
2018-07-01T07:03:40.102Z,10.93
2018-07-01T07:05:42.429Z,10.38
2018-07-01T07:07:44.310Z,89.13
2018-07-01T07:09:46.271Z,48.70
2018-07-01T07:11:48.238Z,53.85
2018-07-01T07:13:50.218Z,26.30
2018-07-01T07:15:52.198Z,13.65
2018-07-01T07:17:54.197Z,377.48
2018-07-01T07:19:56.179Z,205.85
2018-07-01T07:21:58.182Z,112.30
2018-07-01T07:24:00.146Z,48.30
2018-07-01T07:26:02.119Z,17.32
2018-07-01T07:28:04.108Z,11.30
2018-07-01T07:30:06.049Z,9.70
2018-07-01T07:32:08.047Z,9.68
2018-07-01T07:34:10.030Z,4.12
2018-07-01T07:36:11.975Z,3.10
2018-07-01T07:38:13.970Z,136.00
2018-07-01T07:40:15.928Z,109.45
2018-07-01T07:42:17.894Z,153.12
2018-07-01T07:44:19.881Z,77.10
2018-07-01T07:46:21.856Z,33.55
2018-07-01T07:48:23.846Z,33.73
2018-07-01T07:50:25.831Z,83.12
2018-07-01T07:52:27.802Z,192.82
2018-07-01T07:54:29.773Z,98.27
2018-07-01T07:56:31.786Z,56.98
2018-07-01T07:58:33.756Z,38.67
2018-07-01T08:00:35.732Z,36.38
2018-07-01T08:02:37.704Z,20.48
2018-07-01T08:04:39.678Z,16.73
2018-07-01T08:06:41.656Z,9.28
2018-07-01T08:08:43.628Z,17.80
2018-07-01T08:10:45.594Z,10.55
2018-07-01T08:12:47.651Z,8.85
2018-07-01T08:14:49.931Z,8.50
2018-07-01T08:16:51.934Z,13.48
2018-07-01T08:18:53.902Z,93.52
2018-07-01T08:20:55.877Z,58.75
2018-07-01T08:22:57.845Z,50.67
2018-07-01T08:24:59.810Z,49.55
2018-07-01T08:27:01.768Z,42.33
2018-07-01T08:29:03.763Z,72.53
2018-07-01T08:31:05.908Z,40.60
2018-07-01T08:33:07.883Z,36.23
2018-07-01T08:35:09.836Z,22.00
2018-07-01T08:37:11.816Z,14.60
2018-07-01T08:39:14.170Z,27.93
2018-07-01T08:41:16.033Z,15.90
2018-07-01T08:43:18.003Z,7.10
2018-07-01T08:45:19.973Z,6.30
2018-07-01T08:47:21.919Z,26.52
2018-07-01T08:49:23.901Z,46.30
2018-07-01T08:51:25.877Z,5.90
2018-07-01T08:53:27.825Z,4.37
2018-07-01T08:55:29.801Z,9.68
2018-07-01T08:57:31.772Z,25.10
2018-07-01T08:59:33.725Z,40.75
2018-07-01T09:01:35.709Z,48.42
2018-07-01T09:03:37.681Z,27.70
2018-07-01T09:05:39.661Z,10.25
2018-07-01T09:07:41.645Z,17.90
2018-07-01T09:09:43.609Z,13.60
2018-07-01T09:11:45.584Z,8.53
2018-07-01T09:13:47.579Z,4.97
2018-07-01T09:15:49.545Z,2.98
2018-07-01T09:17:51.507Z,25.15
2018-07-01T09:19:53.477Z,32.53
2018-07-01T09:21:55.441Z,46.65
2018-07-01T09:23:57.418Z,31.12
2018-07-01T09:25:59.404Z,32.53
2018-07-01T09:28:01.389Z,14.40
2018-07-01T09:30:03.369Z,17.60
2018-07-01T09:32:05.321Z,27.27
2018-07-01T09:34:07.305Z,28.52
2018-07-01T09:36:09.272Z,15.68
2018-07-01T09:38:11.228Z,8.43
2018-07-01T09:40:13.201Z,2.10
2018-07-01T09:42:15.176Z,2.00
2018-07-01T09:44:17.182Z,3.10
2018-07-01T09:46:19.140Z,28.70
2018-07-01T09:48:21.123Z,14.35
2018-07-01T09:50:23.115Z,5.78
2018-07-01T09:52:25.476Z,8.50
2018-07-01T09:54:27.448Z,19.27
2018-07-01T09:56:29.394Z,12.95
2018-07-01T09:58:31.793Z,9.15
2018-07-01T10:00:33.647Z,11.93
2018-07-01T10:02:35.631Z,9.03
2018-07-01T10:04:37.605Z,8.48
2018-07-01T10:06:39.593Z,9.88
2018-07-01T10:08:41.568Z,17.15
2018-07-01T10:10:43.536Z,10.25
2018-07-01T10:12:45.504Z,4.83
2018-07-01T10:14:47.498Z,1.98
2018-07-01T10:16:49.465Z,4.70
2018-07-01T10:18:51.466Z,2.02
2018-07-01T10:20:53.397Z,4.15
2018-07-01T10:22:55.341Z,4.60
2018-07-01T10:24:57.323Z,3.83
2018-07-01T10:26:59.291Z,3.25
2018-07-01T10:29:01.256Z,2.00
2018-07-01T10:31:03.217Z,1.80
2018-07-01T10:33:05.190Z,2.60
2018-07-01T10:35:07.143Z,16.17
2018-07-01T10:37:09.120Z,100.97
2018-07-01T10:39:11.489Z,24.92
2018-07-01T10:41:13.334Z,26.48
2018-07-01T10:43:15.287Z,12.58
2018-07-01T10:45:17.253Z,16.80
2018-07-01T10:47:19.235Z,24.82
2018-07-01T10:49:21.216Z,13.70
2018-07-01T10:51:23.219Z,3.87
2018-07-01T10:53:25.411Z,8.70
2018-07-01T10:55:27.376Z,4.08
2018-07-01T10:57:29.380Z,2.62
2018-07-01T10:59:31.327Z,4.70
2018-07-01T11:01:33.281Z,27.02
2018-07-01T11:03:35.240Z,5.72
2018-07-01T11:05:37.216Z,7.50
2018-07-01T11:07:39.182Z,6.85
2018-07-01T11:09:41.148Z,4.08
2018-07-01T11:11:43.185Z,1.50
2018-07-01T11:13:46.053Z,0.93
2018-07-01T11:15:48.025Z,14.43
2018-07-01T11:17:49.987Z,8.20
2018-07-01T11:19:51.961Z,3.62
2018-07-01T11:21:53.913Z,2.45
2018-07-01T11:23:55.881Z,1.90
2018-07-01T11:25:57.851Z,1.72
2018-07-01T11:27:59.822Z,4.47
2018-07-01T11:30:01.821Z,3.33
2018-07-01T11:32:03.782Z,4.00
2018-07-01T11:34:05.759Z,19.67
2018-07-01T11:36:07.736Z,22.10
2018-07-01T11:38:09.766Z,26.57
2018-07-01T11:40:11.692Z,49.30
2018-07-01T11:42:13.652Z,47.15
2018-07-01T11:44:15.630Z,32.88
2018-07-01T11:46:17.610Z,34.40
2018-07-01T11:48:19.573Z,35.03
2018-07-01T11:50:21.534Z,26.77
2018-07-01T11:52:23.570Z,22.32
2018-07-01T11:54:25.496Z,21.97
2018-07-01T11:56:27.443Z,19.55
2018-07-01T11:58:29.414Z,14.18
2018-07-01T12:00:31.382Z,13.70
2018-07-01T12:02:33.361Z,12.37
2018-07-01T12:04:35.714Z,11.08
2018-07-01T12:06:37.567Z,10.93
2018-07-01T12:08:39.650Z,9.20
2018-07-01T12:10:41.590Z,8.28
2018-07-01T12:12:43.550Z,7.92
2018-07-01T12:14:45.517Z,6.75
2018-07-01T12:16:47.501Z,6.47
2018-07-01T12:18:49.480Z,3.20
2018-07-01T12:20:51.440Z,3.92
2018-07-01T12:22:53.632Z,2.87
2018-07-01T12:24:55.606Z,1.90
2018-07-01T12:26:57.587Z,3.92
2018-07-01T12:28:59.542Z,5.55
2018-07-01T12:31:01.476Z,22.67
2018-07-01T12:33:03.456Z,27.75
2018-07-01T12:35:05.417Z,54.05
2018-07-01T12:37:07.406Z,39.73
2018-07-01T12:39:09.389Z,46.13
2018-07-01T12:41:11.364Z,39.67
2018-07-01T12:43:13.326Z,32.17
2018-07-01T12:45:15.412Z,27.48
2018-07-01T12:47:17.340Z,25.82
2018-07-01T12:49:19.337Z,23.52
2018-07-01T12:51:21.296Z,16.32
2018-07-01T12:53:23.277Z,17.12
2018-07-01T12:55:25.259Z,12.82
2018-07-01T12:57:27.204Z,6.70
2018-07-01T12:59:29.190Z,4.25
2018-07-01T13:01:31.144Z,2.62
2018-07-01T13:03:33.074Z,1.10
2018-07-01T13:05:35.038Z,1.60
2018-07-01T13:07:37.029Z,1.72
2018-07-01T13:09:38.990Z,1.10
2018-07-01T13:11:40.984Z,1.15
2018-07-01T13:13:42.940Z,0.80
2018-07-01T13:15:44.907Z,0.50
2018-07-01T13:17:46.860Z,0.70
2018-07-01T13:19:48.836Z,1.12
2018-07-01T13:21:50.850Z,0.60
2018-07-01T13:23:52.809Z,0.65
2018-07-01T13:25:54.790Z,0.50
2018-07-01T13:27:56.741Z,0.50
2018-07-01T13:29:58.714Z,0.30
2018-07-01T13:32:00.699Z,0.30
2018-07-01T13:34:02.673Z,0.60
2018-07-01T13:36:04.631Z,0.30
2018-07-01T13:38:06.589Z,0.50
2018-07-01T13:40:08.547Z,84.25
2018-07-01T13:42:10.536Z,430.80
2018-07-01T13:44:12.506Z,144.62
2018-07-01T13:46:14.500Z,123.72
2018-07-01T13:48:16.879Z,67.97
2018-07-01T13:50:18.729Z,44.58
2018-07-01T13:52:20.688Z,93.17
2018-07-01T13:54:22.660Z,80.45
2018-07-01T13:56:24.646Z,75.95
2018-07-01T13:58:26.607Z,16.67
2018-07-01T14:00:28.630Z,11.85
2018-07-01T14:02:30.896Z,20.08
2018-07-01T14:04:32.846Z,24.55
2018-07-01T14:06:34.823Z,16.50
2018-07-01T14:08:36.799Z,9.15
2018-07-01T14:10:38.718Z,2.40
2018-07-01T14:12:40.700Z,3.33
2018-07-01T14:14:42.650Z,3.60
2018-07-01T14:16:44.604Z,6.62
2018-07-01T14:18:46.589Z,5.70
2018-07-01T14:20:48.535Z,4.72
2018-07-01T14:22:50.500Z,1.57
2018-07-01T14:24:52.463Z,1.12
2018-07-01T14:26:54.502Z,0.50
2018-07-01T14:28:56.424Z,1.30
2018-07-01T14:30:58.376Z,2.40
2018-07-01T14:33:00.340Z,1.55
2018-07-01T14:35:02.318Z,0.65
2018-07-01T14:37:04.275Z,1.70
2018-07-01T14:39:06.235Z,1.20
2018-07-01T14:41:08.188Z,2.33
2018-07-01T14:43:10.155Z,6.97
2018-07-01T14:45:12.108Z,99.52
2018-07-01T14:47:14.080Z,51.18
2018-07-01T14:49:16.091Z,28.25
2018-07-01T14:51:18.027Z,25.72
2018-07-01T14:53:19.986Z,22.65
2018-07-01T14:55:21.936Z,8.58
2018-07-01T14:57:23.898Z,11.18
2018-07-01T14:59:25.885Z,10.18
2018-07-01T15:01:27.856Z,6.78
2018-07-01T15:03:30.148Z,4.72
2018-07-01T15:05:32.130Z,2.80
2018-07-01T15:07:34.099Z,3.47
2018-07-01T15:09:36.070Z,5.67
2018-07-01T15:11:38.029Z,1.77
2018-07-01T15:13:39.976Z,3.85
2018-07-01T15:15:41.954Z,4.35
2018-07-01T15:17:43.922Z,1.67
2018-07-01T15:19:45.891Z,3.37
2018-07-01T15:21:47.842Z,33.48
2018-07-01T15:23:49.822Z,86.20
2018-07-01T15:25:51.796Z,101.18
2018-07-01T15:27:53.773Z,97.82
2018-07-01T15:29:55.755Z,19.48
2018-07-01T15:31:57.720Z,20.85
2018-07-01T15:33:59.675Z,36.77
2018-07-01T15:36:01.656Z,32.38
2018-07-01T15:38:03.622Z,34.33
2018-07-01T15:40:05.586Z,50.75
2018-07-01T15:42:07.571Z,155.70
2018-07-01T15:44:09.563Z,113.42
2018-07-01T15:46:11.507Z,87.10
2018-07-01T15:48:13.483Z,63.50
2018-07-01T15:50:15.482Z,90.60
2018-07-01T15:52:17.451Z,28.00
2018-07-01T15:54:19.430Z,14.90
2018-07-01T15:56:21.440Z,13.45
2018-07-01T15:58:23.421Z,7.60
2018-07-01T16:00:25.374Z,35.95
2018-07-01T16:02:27.440Z,10.45
2018-07-01T16:04:29.362Z,4.85
2018-07-01T16:06:31.342Z,2.70
2018-07-01T16:08:33.316Z,1.30
2018-07-01T16:10:35.296Z,16.60
2018-07-01T16:12:37.262Z,82.30
2018-07-01T16:14:39.252Z,109.57
2018-07-01T16:16:41.599Z,99.03
2018-07-01T16:18:43.456Z,88.97
2018-07-01T16:20:45.415Z,99.77
2018-07-01T16:22:47.388Z,75.72
2018-07-01T16:24:49.366Z,58.05
2018-07-01T16:26:51.336Z,30.12
2018-07-01T16:28:53.293Z,42.88
2018-07-01T16:30:55.280Z,179.95
2018-07-01T16:32:57.253Z,35.43
2018-07-01T16:34:59.207Z,58.60
2018-07-01T16:37:01.186Z,34.23
2018-07-01T16:39:03.153Z,33.45
2018-07-01T16:41:05.147Z,60.17
2018-07-01T16:43:07.110Z,45.75
2018-07-01T16:45:09.463Z,30.25
2018-07-01T16:47:11.306Z,23.57
2018-07-01T16:49:13.282Z,12.68
2018-07-01T16:51:15.256Z,17.05
2018-07-01T16:53:17.239Z,110.05
2018-07-01T16:55:19.240Z,8.83
2018-07-01T16:57:21.200Z,11.12
2018-07-01T16:59:23.172Z,4.12
2018-07-01T17:01:25.117Z,6.40
2018-07-01T17:03:27.077Z,3.33
2018-07-01T17:05:29.159Z,1.07
2018-07-01T17:07:30.982Z,7.28
2018-07-01T17:09:32.957Z,16.73
2018-07-01T17:11:34.915Z,42.58
2018-07-01T17:13:36.932Z,46.98
2018-07-01T17:15:39.232Z,22.65
2018-07-01T17:17:41.205Z,22.67
2018-07-01T17:19:43.192Z,10.98
2018-07-01T17:21:45.127Z,6.58
2018-07-01T17:23:47.084Z,51.70
2018-07-01T17:25:49.069Z,41.75
2018-07-01T17:27:51.048Z,25.40
2018-07-01T17:29:53.117Z,28.20
2018-07-01T17:31:55.046Z,18.52
2018-07-01T17:33:57.030Z,12.95
2018-07-01T17:35:59.389Z,26.15
2018-07-01T17:38:01.252Z,26.27
2018-07-01T17:40:03.277Z,18.02
2018-07-01T17:42:05.229Z,27.27
2018-07-01T17:44:07.203Z,24.50
2018-07-01T17:46:09.195Z,53.78
2018-07-01T17:48:11.143Z,46.02
2018-07-01T17:50:13.108Z,30.68
2018-07-01T17:52:15.078Z,25.20
2018-07-01T17:54:17.062Z,15.25
2018-07-01T17:56:19.025Z,6.20
2018-07-01T17:58:20.987Z,4.42
2018-07-01T18:00:22.956Z,2.50
2018-07-01T18:02:24.918Z,1.90
2018-07-01T18:04:26.886Z,0.93
2018-07-01T18:06:28.862Z,1.80
2018-07-01T18:08:30.828Z,0.80
2018-07-01T18:10:32.819Z,0.90
2018-07-01T18:12:34.780Z,0.40
2018-07-01T18:14:36.750Z,0.50
2018-07-01T18:16:38.734Z,0.53
2018-07-01T18:18:41.082Z,0.60
2018-07-01T18:20:42.931Z,151.27
2018-07-01T18:23:18.230Z,62.45
2018-07-01T18:24:58.062Z,74.12
2018-07-01T18:26:48.858Z,73.57
2018-07-01T18:29:02.567Z,43.33
2018-07-01T18:30:52.814Z,22.40
2018-07-01T18:32:54.763Z,9.80
2018-07-01T18:34:56.744Z,9.93
2018-07-01T18:36:59.013Z,5.42
2018-07-01T18:39:01.023Z,3.33
2018-07-01T18:41:02.932Z,2.50
2018-07-01T18:43:04.862Z,1.70
2018-07-01T18:45:06.852Z,1.22
2018-07-01T18:47:08.824Z,1.00
2018-07-01T18:49:10.796Z,0.70
2018-07-01T18:53:14.769Z,0.70
2018-07-01T18:55:16.738Z,0.60
2018-07-01T18:57:18.708Z,21.50
2018-07-01T18:59:20.776Z,30.60
2018-07-01T19:01:23.121Z,45.17
2018-07-01T19:03:25.041Z,30.08
2018-07-01T19:05:27.036Z,11.83
2018-07-01T19:07:28.994Z,11.68
2018-07-01T19:09:30.958Z,5.35
2018-07-01T19:11:32.933Z,2.85
2018-07-01T19:13:35.415Z,1.67
2018-07-01T19:15:37.386Z,1.40
2018-07-01T19:17:39.339Z,0.88
2018-07-01T19:19:41.312Z,0.80
2018-07-01T19:21:43.298Z,17.60
2018-07-01T19:23:45.269Z,27.52
2018-07-01T19:25:47.270Z,50.92
2018-07-01T19:27:49.237Z,28.50
2018-07-01T19:29:51.287Z,9.20
2018-07-01T19:31:53.265Z,3.95
2018-07-01T19:33:55.278Z,2.10
2018-07-01T19:35:57.218Z,1.60
2018-07-01T19:37:59.174Z,0.80
2018-07-01T19:40:01.142Z,0.70
2018-07-01T19:42:03.100Z,0.95
2018-07-01T19:44:05.072Z,10.35
2018-07-01T19:46:07.048Z,18.55
2018-07-01T19:48:09.006Z,10.48
2018-07-01T19:50:11.054Z,4.22
2018-07-01T19:54:26.226Z,1.00
2018-07-01T19:56:28.160Z,0.70
2018-07-01T19:58:30.116Z,0.85
2018-07-01T20:00:32.135Z,2.22
2018-07-01T20:02:34.093Z,3.35
2018-07-01T20:04:36.056Z,3.62
2018-07-01T20:06:38.412Z,4.78
2018-07-01T20:08:40.494Z,4.50
2018-07-01T20:10:42.488Z,4.87
2018-07-01T20:12:44.470Z,4.60
2018-07-01T20:14:46.424Z,4.65
2018-07-01T20:16:48.407Z,4.30
2018-07-01T20:18:50.364Z,4.40
2018-07-01T20:20:53.208Z,8.35
2018-07-01T20:22:55.220Z,19.07
2018-07-01T20:24:57.191Z,98.50
2018-07-01T20:26:59.158Z,79.30
2018-07-01T20:29:01.813Z,87.67
2018-07-01T20:31:03.792Z,97.33
2018-07-01T20:33:05.798Z,118.00
2018-07-01T20:35:07.769Z,125.00
2018-07-01T20:37:09.752Z,146.55
2018-07-01T20:39:11.745Z,149.75
2018-07-01T20:41:13.740Z,155.35
2018-07-01T20:43:15.697Z,123.60
2018-07-01T20:45:18.081Z,130.95
2018-07-01T20:47:19.933Z,124.02
2018-07-01T20:49:21.917Z,119.97
2018-07-01T20:51:23.917Z,114.12
2018-07-01T20:53:25.886Z,102.62
2018-07-01T20:55:27.863Z,119.85
2018-07-01T20:57:29.855Z,111.88
2018-07-01T20:59:31.825Z,139.60
2018-07-01T21:01:34.211Z,129.87
2018-07-01T21:03:36.065Z,133.78
2018-07-01T21:05:38.135Z,139.75
2018-07-01T21:07:40.079Z,137.62
2018-07-01T21:09:42.052Z,152.20
2018-07-01T21:11:44.068Z,141.82
2018-07-01T21:13:46.025Z,219.40
2018-07-01T21:15:48.013Z,163.35
2018-07-01T21:17:50.053Z,244.80
2018-07-01T21:19:51.986Z,220.52
2018-07-01T21:21:53.929Z,251.92
2018-07-01T21:23:55.923Z,271.13
2018-07-01T21:25:57.901Z,296.93
2018-07-01T21:27:59.872Z,317.20
2018-07-01T21:30:01.853Z,310.75
2018-07-01T21:32:03.836Z,318.15
2018-07-01T21:34:05.809Z,339.50
2018-07-01T21:36:07.806Z,322.10
2018-07-01T21:38:09.762Z,371.55
2018-07-01T21:40:11.750Z,361.20
2018-07-01T21:42:13.718Z,362.75
2018-07-01T21:44:15.704Z,360.10
2018-07-01T21:46:17.681Z,347.95
2018-07-01T21:48:19.650Z,325.38
2018-07-01T21:50:21.641Z,327.87
2018-07-01T21:52:23.609Z,308.45
2018-07-01T21:54:25.937Z,293.70
2018-07-01T21:56:28.306Z,287.50
2018-07-01T21:58:30.154Z,282.75
2018-07-01T22:00:32.197Z,293.67
2018-07-01T22:02:34.126Z,299.15
2018-07-01T22:04:36.095Z,330.77
2018-07-01T22:06:38.089Z,367.35
2018-07-01T22:08:40.070Z,394.27
2018-07-01T22:10:42.039Z,433.83
2018-07-01T22:12:44.018Z,461.02
2018-07-01T22:14:46.331Z,422.10
2018-07-01T22:16:48.633Z,451.65
2018-07-01T22:18:50.884Z,443.10
2018-07-01T22:20:52.868Z,476.90
2018-07-01T22:22:54.861Z,488.52
2018-07-01T22:24:57.108Z,510.10
2018-07-01T22:26:59.116Z,461.17
2018-07-01T22:29:01.089Z,449.50
2018-07-01T22:31:03.448Z,465.58
2018-07-01T22:33:05.442Z,486.52
2018-07-01T22:35:07.414Z,492.98
2018-07-01T22:37:09.437Z,498.32
2018-07-01T22:39:11.390Z,486.02
2018-07-01T22:41:13.356Z,487.48
2018-07-01T22:43:15.324Z,485.80
2018-07-01T22:45:17.295Z,480.30
2018-07-01T22:47:19.260Z,453.00
2018-07-01T22:49:21.229Z,461.10
2018-07-01T22:51:23.183Z,431.00
2018-07-01T22:53:25.210Z,432.92
2018-07-01T22:55:27.498Z,428.77
2018-07-01T22:57:29.476Z,415.28
2018-07-01T22:59:31.536Z,409.57
2018-07-01T23:01:33.504Z,399.15
2018-07-01T23:03:35.494Z,393.15
2018-07-01T23:05:37.481Z,401.80
2018-07-01T23:07:39.450Z,383.75
2018-07-01T23:09:41.694Z,367.85
2018-07-01T23:11:43.670Z,354.40
2018-07-01T23:13:45.630Z,353.50
2018-07-01T23:15:47.990Z,343.70
2018-07-01T23:17:49.950Z,332.67
2018-07-01T23:19:51.936Z,348.55
2018-07-01T23:21:53.916Z,329.55
2018-07-01T23:23:55.898Z,316.73
2018-07-01T23:25:57.876Z,337.93
2018-07-01T23:27:59.844Z,322.17
2018-07-01T23:30:01.817Z,297.88
2018-07-01T23:32:03.804Z,310.30
2018-07-01T23:34:05.764Z,297.65
2018-07-01T23:36:07.749Z,300.55
2018-07-01T23:38:10.056Z,274.42
2018-07-01T23:40:12.025Z,286.77
2018-07-01T23:42:14.002Z,276.00
2018-07-01T23:44:15.986Z,282.85
2018-07-01T23:46:17.976Z,245.73
2018-07-01T23:48:19.949Z,257.25
2018-07-01T23:50:21.927Z,242.43
2018-07-01T23:52:23.914Z,241.02
2018-07-01T23:54:25.882Z,245.90
2018-07-01T23:56:27.847Z,244.55
2018-07-01T23:58:30.179Z,244.47
